sensor_id;sensor_type;location;lat;lon;timestamp;pressure;altitude;pressure_sealevel;temperature;humidity
56414;BME280;42318;48.452;19.526;2023-06-24T00:07:14;98315.78;;;23.91;62.98
56414;BME280;42318;48.452;19.526;2023-06-24T00:14:46;98322.63;;;23.93;62.82
56414;BME280;42318;48.452;19.526;2023-06-24T00:22:17;98339.56;;;23.95;62.58
56414;BME280;42318;48.452;19.526;2023-06-24T00:29:48;98333.03;;;23.91;62.58
56414;BME280;42318;48.452;19.526;2023-06-24T00:37:19;98348.03;;;23.99;62.41
56414;BME280;42318;48.452;19.526;2023-06-24T00:44:50;98325.31;;;23.98;62.54
56414;BME280;42318;48.452;19.526;2023-06-24T00:59:23;98332.16;;;23.96;62.46
56414;BME280;42318;48.452;19.526;2023-06-24T01:06:55;98325.88;;;23.95;62.69
56414;BME280;42318;48.452;19.526;2023-06-24T01:14:26;98350.50;;;23.95;62.43
56414;BME280;42318;48.452;19.526;2023-06-24T01:22:19;98337.34;;;23.97;62.15
56414;BME280;42318;48.452;19.526;2023-06-24T01:37:44;98311.97;;;23.92;62.47
56414;BME280;42318;48.452;19.526;2023-06-24T01:46:11;98314.94;;;23.95;62.39
56414;BME280;42318;48.452;19.526;2023-06-24T01:53:38;98315.22;;;23.94;62.36
56414;BME280;42318;48.452;19.526;2023-06-24T02:15:33;98316.31;;;23.93;62.29
56414;BME280;42318;48.452;19.526;2023-06-24T02:23:07;98302.13;;;23.91;62.10
56414;BME280;42318;48.452;19.526;2023-06-24T02:30:39;98310.84;;;23.93;62.20
56414;BME280;42318;48.452;19.526;2023-06-24T02:38:10;98293.09;;;23.90;62.22
56414;BME280;42318;48.452;19.526;2023-06-24T02:45:41;98301.81;;;23.92;61.94
56414;BME280;42318;48.452;19.526;2023-06-24T02:53:12;98325.34;;;23.93;61.99
56414;BME280;42318;48.452;19.526;2023-06-24T03:00:44;98316.59;;;23.91;62.10
56414;BME280;42318;48.452;19.526;2023-06-24T03:08:15;98330.28;;;23.91;61.90
56414;BME280;42318;48.452;19.526;2023-06-24T03:15:46;98329.75;;;23.89;61.98
56414;BME280;42318;48.452;19.526;2023-06-24T03:23:17;98303.75;;;23.92;62.09
56414;BME280;42318;48.452;19.526;2023-06-24T03:30:47;98316.59;;;23.91;62.22
56414;BME280;42318;48.452;19.526;2023-06-24T03:38:18;98321.25;;;23.91;62.10
56414;BME280;42318;48.452;19.526;2023-06-24T03:45:49;98328.38;;;23.92;61.85
56414;BME280;42318;48.452;19.526;2023-06-24T03:53:20;98338.50;;;23.91;62.00
56414;BME280;42318;48.452;19.526;2023-06-24T04:00:51;98351.38;;;23.91;61.74
56414;BME280;42318;48.452;19.526;2023-06-24T04:08:22;98358.47;;;23.92;61.78
56414;BME280;42318;48.452;19.526;2023-06-24T04:15:54;98372.44;;;23.90;62.02
56414;BME280;42318;48.452;19.526;2023-06-24T04:23:25;98365.06;;;23.91;61.80
56414;BME280;42318;48.452;19.526;2023-06-24T04:30:56;98362.03;;;23.92;61.91
56414;BME280;42318;48.452;19.526;2023-06-24T04:38:26;98357.66;;;23.91;62.04
56414;BME280;42318;48.452;19.526;2023-06-24T04:45:57;98364.50;;;23.89;62.01
56414;BME280;42318;48.452;19.526;2023-06-24T04:53:28;98366.44;;;23.88;61.95
56414;BME280;42318;48.452;19.526;2023-06-24T05:00:59;98378.72;;;23.91;61.86
56414;BME280;42318;48.452;19.526;2023-06-24T05:08:30;98373.78;;;23.93;62.16
56414;BME280;42318;48.452;19.526;2023-06-24T05:16:01;98386.38;;;23.94;61.73
56414;BME280;42318;48.452;19.526;2023-06-24T05:23:32;98383.34;;;23.95;61.61
56414;BME280;42318;48.452;19.526;2023-06-24T05:31:02;98392.91;;;23.98;62.02
56414;BME280;42318;48.452;19.526;2023-06-24T05:38:33;98393.75;;;23.93;61.95
56414;BME280;42318;48.452;19.526;2023-06-24T05:46:04;98409.31;;;23.98;62.17
56414;BME280;42318;48.452;19.526;2023-06-24T05:53:35;98419.47;;;23.97;61.58
56414;BME280;42318;48.452;19.526;2023-06-24T06:01:05;98427.38;;;23.99;61.93
56414;BME280;42318;48.452;19.526;2023-06-24T06:08:36;98431.75;;;24.00;61.71
56414;BME280;42318;48.452;19.526;2023-06-24T06:16:07;98436.13;;;24.01;61.80
56414;BME280;42318;48.452;19.526;2023-06-24T06:23:38;98452.53;;;24.01;61.77
56414;BME280;42318;48.452;19.526;2023-06-24T06:31:09;98456.09;;;24.01;61.81
56414;BME280;42318;48.452;19.526;2023-06-24T06:38:40;98470.59;;;24.02;61.60
56414;BME280;42318;48.452;19.526;2023-06-24T06:46:11;98474.69;;;24.04;61.71
56414;BME280;42318;48.452;19.526;2023-06-24T06:53:42;98469.22;;;24.04;61.49
56414;BME280;42318;48.452;19.526;2023-06-24T07:01:13;98461.56;;;24.01;61.16
56414;BME280;42318;48.452;19.526;2023-06-24T07:08:44;98479.59;;;24.07;61.53
56414;BME280;42318;48.452;19.526;2023-06-24T07:16:15;98474.94;;;24.08;61.19
56414;BME280;42318;48.452;19.526;2023-06-24T07:23:45;98485.88;;;24.08;61.31
56414;BME280;42318;48.452;19.526;2023-06-24T07:31:16;98491.09;;;24.09;61.24
56414;BME280;42318;48.452;19.526;2023-06-24T07:38:47;98487.25;;;24.10;61.37
56414;BME280;42318;48.452;19.526;2023-06-24T07:46:18;98501.75;;;24.11;60.76
56414;BME280;42318;48.452;19.526;2023-06-24T07:53:49;98496.28;;;24.11;60.94
56414;BME280;42318;48.452;19.526;2023-06-24T08:01:19;98499.84;;;24.11;61.04
56414;BME280;42318;48.452;19.526;2023-06-24T08:08:50;98513.50;;;24.11;61.39
56414;BME280;42318;48.452;19.526;2023-06-24T08:16:21;98527.19;;;24.11;61.27
56414;BME280;42318;48.452;19.526;2023-06-24T08:23:52;98523.66;;;24.11;61.29
56414;BME280;42318;48.452;19.526;2023-06-24T08:31:22;98524.47;;;24.11;61.37
56414;BME280;42318;48.452;19.526;2023-06-24T08:38:54;98517.06;;;24.12;61.56
56414;BME280;42318;48.452;19.526;2023-06-24T08:46:25;98502.56;;;24.11;61.70
56414;BME280;42318;48.452;19.526;2023-06-24T08:53:58;98510.50;;;24.13;61.62
56414;BME280;42318;48.452;19.526;2023-06-24T09:01:29;98505.84;;;24.13;61.65
56414;BME280;42318;48.452;19.526;2023-06-24T09:09:00;98506.66;;;24.14;61.53
56414;BME280;42318;48.452;19.526;2023-06-24T09:16:31;98509.94;;;24.16;61.52
56414;BME280;42318;48.452;19.526;2023-06-24T09:24:02;98506.34;;;24.21;62.44
56414;BME280;42318;48.452;19.526;2023-06-24T09:31:34;98503.84;;;24.24;63.89
56414;BME280;42318;48.452;19.526;2023-06-24T09:39:08;98504.41;;;24.26;63.52
56414;BME280;42318;48.452;19.526;2023-06-24T09:46:40;98510.16;;;24.25;62.90
56414;BME280;42318;48.452;19.526;2023-06-24T09:54:13;98508.81;;;24.22;62.61
56414;BME280;42318;48.452;19.526;2023-06-24T10:01:44;98501.41;;;24.23;62.66
56414;BME280;42318;48.452;19.526;2023-06-24T10:09:15;98517.84;;;24.23;62.52
56414;BME280;42318;48.452;19.526;2023-06-24T10:16:48;98518.66;;;24.23;62.23
56414;BME280;42318;48.452;19.526;2023-06-24T10:24:35;98511.53;;;24.22;62.17
56414;BME280;42318;48.452;19.526;2023-06-24T10:32:07;98508.81;;;24.22;61.83
56414;BME280;42318;48.452;19.526;2023-06-24T10:40:00;98499.22;;;24.20;61.90
56414;BME280;42318;48.452;19.526;2023-06-24T10:47:31;98505.25;;;24.22;61.88
56414;BME280;42318;48.452;19.526;2023-06-24T10:55:02;98500.88;;;24.21;61.78
56414;BME280;42318;48.452;19.526;2023-06-24T11:02:34;98509.09;;;24.21;61.27
56414;BME280;42318;48.452;19.526;2023-06-24T11:10:13;98496.22;;;24.21;61.69
56414;BME280;42318;48.452;19.526;2023-06-24T11:17:45;98482.00;;;24.19;61.35
56414;BME280;42318;48.452;19.526;2023-06-24T11:25:20;98470.22;;;24.19;61.50
56414;BME280;42318;48.452;19.526;2023-06-24T11:32:52;98463.66;;;24.20;61.43
56414;BME280;42318;48.452;19.526;2023-06-24T11:40:23;98438.50;;;24.12;61.31
56414;BME280;42318;48.452;19.526;2023-06-24T11:48:01;98443.91;;;24.23;61.33
56414;BME280;42318;48.452;19.526;2023-06-24T11:55:33;98432.44;;;24.21;61.14
56414;BME280;42318;48.452;19.526;2023-06-24T12:03:08;98437.03;;;24.25;61.47
56414;BME280;42318;48.452;19.526;2023-06-24T12:10:39;98429.66;;;24.26;61.41
56414;BME280;42318;48.452;19.526;2023-06-24T12:18:12;98419.81;;;24.25;61.54
56414;BME280;42318;48.452;19.526;2023-06-24T12:25:43;98423.06;;;24.27;61.43
56414;BME280;42318;48.452;19.526;2023-06-24T12:33:14;98412.97;;;24.27;61.58
56414;BME280;42318;48.452;19.526;2023-06-24T12:40:46;98422.28;;;24.31;61.56
56414;BME280;42318;48.452;19.526;2023-06-24T12:48:18;98412.66;;;24.34;61.29
56414;BME280;42318;48.452;19.526;2023-06-24T12:55:49;98412.13;;;24.32;61.62
56414;BME280;42318;48.452;19.526;2023-06-24T13:03:21;98418.72;;;24.31;61.82
56414;BME280;42318;48.452;19.526;2023-06-24T13:10:52;98406.94;;;24.30;61.61
56414;BME280;42318;48.452;19.526;2023-06-24T13:18:22;98401.16;;;24.27;61.72
56414;BME280;42318;48.452;19.526;2023-06-24T13:25:53;98406.94;;;24.30;61.98
56414;BME280;42318;48.452;19.526;2023-06-24T13:33:24;98400.63;;;24.35;62.05
56414;BME280;42318;48.452;19.526;2023-06-24T13:40:55;98400.03;;;24.38;62.30
56414;BME280;42318;48.452;19.526;2023-06-24T13:48:26;98393.16;;;24.40;62.14
56414;BME280;42318;48.452;19.526;2023-06-24T13:55:57;98392.34;;;24.40;62.09
56414;BME280;42318;48.452;19.526;2023-06-24T14:03:27;98396.97;;;24.45;62.16
56414;BME280;42318;48.452;19.526;2023-06-24T14:10:59;98394.22;;;24.45;62.01
56414;BME280;42318;48.452;19.526;2023-06-24T14:18:31;98384.63;;;24.47;61.98
56414;BME280;42318;48.452;19.526;2023-06-24T14:26:03;98374.47;;;24.48;61.85
56414;BME280;42318;48.452;19.526;2023-06-24T14:33:34;98367.66;;;24.45;61.64
56414;BME280;42318;48.452;19.526;2023-06-24T14:41:04;98375.63;;;24.41;61.86
56414;BME280;42318;48.452;19.526;2023-06-24T14:48:38;98358.38;;;24.41;61.73
56414;BME280;42318;48.452;19.526;2023-06-24T14:56:09;98355.41;;;24.37;61.66
56414;BME280;42318;48.452;19.526;2023-06-24T15:03:40;98372.38;;;24.39;61.89
56414;BME280;42318;48.452;19.526;2023-06-24T15:11:11;98370.75;;;24.38;61.55
56414;BME280;42318;48.452;19.526;2023-06-24T15:18:45;98379.25;;;24.37;61.91
56414;BME280;42318;48.452;19.526;2023-06-24T15:26:17;98380.34;;;24.36;61.95
56414;BME280;42318;48.452;19.526;2023-06-24T15:33:48;98388.56;;;24.36;61.70
56414;BME280;42318;48.452;19.526;2023-06-24T15:41:19;98392.41;;;24.35;61.85
56414;BME280;42318;48.452;19.526;2023-06-24T15:48:50;98415.13;;;24.35;61.78
56414;BME280;42318;48.452;19.526;2023-06-24T15:56:21;98404.97;;;24.36;61.58
56414;BME280;42318;48.452;19.526;2023-06-24T16:03:53;98410.75;;;24.34;61.96
56414;BME280;42318;48.452;19.526;2023-06-24T16:11:24;98413.50;;;24.34;61.73
56414;BME280;42318;48.452;19.526;2023-06-24T16:18:54;98406.09;;;24.35;61.53
56414;BME280;42318;48.452;19.526;2023-06-24T16:26:25;98415.41;;;24.34;61.66
56414;BME280;42318;48.452;19.526;2023-06-24T16:33:56;98418.16;;;24.34;61.81
56414;BME280;42318;48.452;19.526;2023-06-24T16:41:27;98426.38;;;24.34;61.75
56414;BME280;42318;48.452;19.526;2023-06-24T16:48:57;98431.59;;;24.30;61.84
56414;BME280;42318;48.452;19.526;2023-06-24T16:56:36;98430.50;;;24.31;61.53
56414;BME280;42318;48.452;19.526;2023-06-24T17:04:07;98442.25;;;24.32;61.78
56414;BME280;42318;48.452;19.526;2023-06-24T17:11:38;98445.28;;;24.30;61.88
56414;BME280;42318;48.452;19.526;2023-06-24T17:19:09;98458.97;;;24.30;61.67
56414;BME280;42318;48.452;19.526;2023-06-24T17:26:40;98447.50;;;24.28;61.62
56414;BME280;42318;48.452;19.526;2023-06-24T17:34:11;98451.88;;;24.29;61.57
56414;BME280;42318;48.452;19.526;2023-06-24T17:41:41;98446.63;;;24.28;61.81
56414;BME280;42318;48.452;19.526;2023-06-24T17:49:12;98445.81;;;24.27;61.46
56414;BME280;42318;48.452;19.526;2023-06-24T17:56:43;98437.88;;;24.26;61.89
56414;BME280;42318;48.452;19.526;2023-06-24T18:04:14;98444.44;;;24.25;61.71
56414;BME280;42318;48.452;19.526;2023-06-24T18:11:45;98448.00;;;24.25;61.86
56414;BME280;42318;48.452;19.526;2023-06-24T18:19:18;98461.97;;;24.24;61.68
56414;BME280;42318;48.452;19.526;2023-06-24T18:26:49;98466.63;;;24.23;61.59
56414;BME280;42318;48.452;19.526;2023-06-24T18:34:20;98492.09;;;24.24;61.47
56414;BME280;42318;48.452;19.526;2023-06-24T18:41:51;98492.09;;;24.24;61.76
56414;BME280;42318;48.452;19.526;2023-06-24T18:49:21;98504.13;;;24.23;61.54
56414;BME280;42318;48.452;19.526;2023-06-24T18:56:52;98502.50;;;24.22;61.62
56414;BME280;42318;48.452;19.526;2023-06-24T19:04:23;98515.66;;;24.20;61.50
56414;BME280;42318;48.452;19.526;2023-06-24T19:11:54;98537.28;;;24.21;61.54
56414;BME280;42318;48.452;19.526;2023-06-24T19:19:25;98539.19;;;24.21;61.44
56414;BME280;42318;48.452;19.526;2023-06-24T19:26:56;98549.63;;;24.19;61.39
56414;BME280;42318;48.452;19.526;2023-06-24T19:34:27;98563.31;;;24.19;61.40
56414;BME280;42318;48.452;19.526;2023-06-24T19:41:57;98567.69;;;24.20;61.63
56414;BME280;42318;48.452;19.526;2023-06-24T19:49:29;98568.53;;;24.15;61.34
56414;BME280;42318;48.452;19.526;2023-06-24T19:57:00;98575.63;;;24.16;61.39
56414;BME280;42318;48.452;19.526;2023-06-24T20:04:31;98569.88;;;24.18;61.70
56414;BME280;42318;48.452;19.526;2023-06-24T20:12:02;98575.34;;;24.18;61.58
56414;BME280;42318;48.452;19.526;2023-06-24T20:19:33;98571.78;;;24.17;61.18
56414;BME280;42318;48.452;19.526;2023-06-24T20:27:04;98570.97;;;24.17;61.48
56414;BME280;42318;48.452;19.526;2023-06-24T20:34:35;98570.97;;;24.17;61.23
56414;BME280;42318;48.452;19.526;2023-06-24T20:42:06;98575.91;;;24.15;61.34
56414;BME280;42318;48.452;19.526;2023-06-24T20:49:36;98569.63;;;24.14;61.35
56414;BME280;42318;48.452;19.526;2023-06-24T20:57:07;98560.59;;;24.13;61.23
56414;BME280;42318;48.452;19.526;2023-06-24T21:04:38;98575.09;;;24.14;61.15
56414;BME280;42318;48.452;19.526;2023-06-24T21:12:09;98574.28;;;24.13;61.35
56414;BME280;42318;48.452;19.526;2023-06-24T21:19:40;98582.50;;;24.13;61.30
56414;BME280;42318;48.452;19.526;2023-06-24T21:27:10;98573.19;;;24.09;61.05
56414;BME280;42318;48.452;19.526;2023-06-24T21:34:41;98585.50;;;24.12;61.35
56414;BME280;42318;48.452;19.526;2023-06-24T21:42:12;98575.66;;;24.11;61.25
56414;BME280;42318;48.452;19.526;2023-06-24T21:49:43;98579.50;;;24.10;61.18
56414;BME280;42318;48.452;19.526;2023-06-24T21:57:14;98568.53;;;24.10;61.31
56414;BME280;42318;48.452;19.526;2023-06-24T22:04:45;98575.94;;;24.09;61.30
56414;BME280;42318;48.452;19.526;2023-06-24T22:12:15;98567.72;;;24.09;61.11
56414;BME280;42318;48.452;19.526;2023-06-24T22:19:46;98566.09;;;24.08;61.68
56414;BME280;42318;48.452;19.526;2023-06-24T22:27:17;98574.31;;;24.08;61.18
56414;BME280;42318;48.452;19.526;2023-06-24T22:34:48;98560.06;;;24.06;60.99
56414;BME280;42318;48.452;19.526;2023-06-24T22:42:19;98561.72;;;24.07;61.28
56414;BME280;42318;48.452;19.526;2023-06-24T22:49:49;98580.88;;;24.07;61.19
56414;BME280;42318;48.452;19.526;2023-06-24T22:57:20;98571.03;;;24.06;61.20
56414;BME280;42318;48.452;19.526;2023-06-24T23:04:51;98556.53;;;24.06;61.13
56414;BME280;42318;48.452;19.526;2023-06-24T23:12:24;98551.31;;;24.04;61.19
56414;BME280;42318;48.452;19.526;2023-06-24T23:19:57;98544.22;;;24.03;61.06
56414;BME280;42318;48.452;19.526;2023-06-24T23:27:30;98545.84;;;24.04;60.88
56414;BME280;42318;48.452;19.526;2023-06-24T23:35:09;98536.00;;;24.03;60.95
56414;BME280;42318;48.452;19.526;2023-06-24T23:42:42;98532.44;;;24.03;61.31
56414;BME280;42318;48.452;19.526;2023-06-24T23:50:13;98519.06;;;24.01;61.03
56414;BME280;42318;48.452;19.526;2023-06-24T23:57:43;98526.16;;;24.02;61.17
